createdAt,value
2018-01-22T00:01:20.749Z,0.60
2018-01-22T00:03:49.138Z,0.60
2018-01-22T00:06:17.405Z,0.60
2018-01-22T00:08:45.654Z,0.60
2018-01-22T00:11:13.152Z,0.60
2018-01-22T00:13:41.419Z,0.50
2018-01-22T00:16:08.923Z,0.50
2018-01-22T00:18:36.407Z,0.40
2018-01-22T00:21:03.899Z,0.40
2018-01-22T00:23:32.193Z,0.30
2018-01-22T00:25:59.683Z,0.30
2018-01-22T00:28:27.195Z,0.20
2018-01-22T00:30:55.459Z,0.20
2018-01-22T00:33:23.046Z,0.20
2018-01-22T00:35:51.320Z,0.10
2018-01-22T00:38:19.597Z,0.10
2018-01-22T00:40:47.859Z,0.10
2018-01-22T00:43:16.149Z,0.10
2018-01-22T00:45:44.415Z,0.10
2018-01-22T00:48:12.797Z,0.10
2018-01-22T00:50:41.060Z,0.00
2018-01-22T00:53:08.637Z,0.00
2018-01-22T00:55:36.911Z,0.00
2018-01-22T00:58:05.186Z,0.00
2018-01-22T01:00:33.443Z,0.00
2018-01-22T01:03:01.706Z,0.00
2018-01-22T01:05:29.209Z,0.00
2018-01-22T01:07:56.691Z,0.00
2018-01-22T01:10:24.183Z,0.00
2018-01-22T01:12:51.688Z,-0.10
2018-01-22T01:15:19.198Z,-0.10
2018-01-22T01:17:47.472Z,-0.10
2018-01-22T01:20:15.077Z,-0.10
2018-01-22T01:22:43.356Z,-0.20
2018-01-22T01:25:10.857Z,-0.20
2018-01-22T01:27:38.359Z,-0.20
2018-01-22T01:30:06.669Z,-0.30
2018-01-22T01:32:34.211Z,-0.30
2018-01-22T01:35:01.711Z,-0.20
2018-01-22T01:37:29.242Z,-0.30
2018-01-22T01:39:56.726Z,-0.30
2018-01-22T01:42:24.225Z,-0.30
2018-01-22T01:44:52.483Z,-0.30
2018-01-22T01:47:19.986Z,-0.30
2018-01-22T01:49:47.472Z,-0.30
2018-01-22T01:52:14.979Z,-0.30
2018-01-22T01:54:43.272Z,-0.30
2018-01-22T01:57:10.823Z,-0.40
2018-01-22T01:59:39.098Z,-0.40
2018-01-22T02:02:06.664Z,-0.40
2018-01-22T02:04:34.952Z,-0.40
2018-01-22T02:07:02.495Z,-0.40
2018-01-22T02:09:30.782Z,-0.40
2018-01-22T02:11:58.286Z,-0.40
2018-01-22T02:14:25.792Z,-0.40
2018-01-22T02:16:54.056Z,-0.50
2018-01-22T02:19:22.344Z,-0.50
2018-01-22T02:21:50.673Z,-0.50
2018-01-22T02:24:18.310Z,-0.50
2018-01-22T02:26:45.809Z,-0.50
2018-01-22T02:29:13.294Z,-0.50
2018-01-22T02:31:41.560Z,-0.50
2018-01-22T02:34:09.860Z,-0.60
2018-01-22T02:36:37.403Z,-0.60
2018-01-22T02:39:05.693Z,-0.60
2018-01-22T02:41:33.210Z,-0.60
2018-01-22T02:44:00.697Z,-0.60
2018-01-22T02:46:28.987Z,-0.60
2018-01-22T02:48:56.547Z,-0.60
2018-01-22T02:51:24.099Z,-0.60
2018-01-22T02:53:52.359Z,-0.60
2018-01-22T02:56:19.908Z,-0.70
2018-01-22T02:58:47.498Z,-0.60
2018-01-22T03:01:15.765Z,-0.70
2018-01-22T03:03:44.049Z,-0.70
2018-01-22T03:06:12.890Z,-0.70
2018-01-22T03:08:40.396Z,-0.70
2018-01-22T03:11:07.932Z,-0.70
2018-01-22T03:13:35.423Z,-0.70
2018-01-22T03:16:02.931Z,-0.60
2018-01-22T03:18:30.427Z,-0.60
2018-01-22T03:20:58.712Z,-0.70
2018-01-22T03:23:26.978Z,-0.60
2018-01-22T03:25:55.244Z,-0.70
2018-01-22T03:28:23.502Z,-0.70
2018-01-22T03:30:51.021Z,-0.70
2018-01-22T03:33:18.515Z,-0.70
2018-01-22T03:35:46.114Z,-0.60
2018-01-22T03:38:14.377Z,-0.70
2018-01-22T03:40:42.668Z,-0.70
2018-01-22T03:43:10.928Z,-0.70
2018-01-22T03:45:38.427Z,-0.80
2018-01-22T03:48:05.959Z,-0.80
2018-01-22T03:50:33.530Z,-0.80
2018-01-22T03:53:01.086Z,-0.80
2018-01-22T03:55:29.451Z,-0.80
2018-01-22T03:57:57.736Z,-0.90
2018-01-22T04:00:25.243Z,-0.90
2018-01-22T04:02:52.748Z,-0.90
2018-01-22T04:05:21.031Z,-0.90
2018-01-22T04:07:49.303Z,-0.90
2018-01-22T04:10:17.586Z,-0.90
2018-01-22T04:12:45.855Z,-0.90
2018-01-22T04:15:14.119Z,-0.90
2018-01-22T04:17:42.385Z,-0.90
2018-01-22T04:20:09.892Z,-0.90
2018-01-22T04:22:37.378Z,-0.90
2018-01-22T04:25:04.887Z,-0.90
2018-01-22T04:27:33.163Z,-0.80
2018-01-22T04:30:01.416Z,-0.80
2018-01-22T04:32:28.915Z,-0.80
2018-01-22T04:34:56.402Z,-0.80
2018-01-22T04:37:24.837Z,-0.80
2018-01-22T04:39:53.096Z,-0.80
2018-01-22T04:42:20.664Z,-0.80
2018-01-22T04:44:48.958Z,-0.80
2018-01-22T04:47:16.508Z,-0.80
2018-01-22T04:49:44.763Z,-0.70
2018-01-22T04:52:12.353Z,-0.80
2018-01-22T04:54:39.847Z,-0.80
2018-01-22T04:57:07.357Z,-0.80
2018-01-22T04:59:34.883Z,-0.90
2018-01-22T05:02:02.482Z,-0.90
2018-01-22T05:04:30.737Z,-0.80
2018-01-22T05:06:59.035Z,-0.90
2018-01-22T05:09:27.299Z,-0.90
2018-01-22T05:11:55.569Z,-0.90
2018-01-22T05:14:23.056Z,-0.90
2018-01-22T05:16:50.575Z,-0.90
2018-01-22T05:19:18.215Z,-0.90
2018-01-22T05:21:45.714Z,-1.00
2018-01-22T05:24:14.000Z,-1.00
2018-01-22T05:26:45.487Z,-0.90
2018-01-22T05:29:13.007Z,-1.00
2018-01-22T05:31:41.291Z,-1.00
2018-01-22T05:34:09.549Z,-1.00
2018-01-22T05:36:37.847Z,-1.10
2018-01-22T05:39:06.104Z,-1.10
2018-01-22T05:41:34.373Z,-1.10
2018-01-22T05:44:02.668Z,-1.10
2018-01-22T05:46:30.944Z,-1.10
2018-01-22T05:48:59.575Z,-1.20
2018-01-22T05:51:27.109Z,-1.20
2018-01-22T05:53:54.593Z,-1.20
2018-01-22T05:56:22.103Z,-1.20
2018-01-22T05:58:50.431Z,-1.20
2018-01-22T06:01:17.941Z,-1.20
2018-01-22T06:03:46.200Z,-1.30
2018-01-22T06:06:13.779Z,-1.30
2018-01-22T06:08:42.051Z,-1.30
2018-01-22T06:11:10.325Z,-1.30
2018-01-22T06:13:38.786Z,-1.30
2018-01-22T06:16:06.286Z,-1.30
2018-01-22T06:18:33.847Z,-1.30
2018-01-22T06:21:01.357Z,-1.30
2018-01-22T06:23:28.847Z,-1.20
2018-01-22T06:25:57.110Z,-1.20
2018-01-22T06:28:25.408Z,-1.20
2018-01-22T06:30:52.904Z,-1.20
2018-01-22T06:33:20.383Z,-1.10
2018-01-22T06:35:47.896Z,-1.10
2018-01-22T06:38:15.383Z,-1.10
2018-01-22T06:40:42.888Z,-1.10
2018-01-22T06:43:11.179Z,-1.10
2018-01-22T06:45:38.734Z,-1.10
2018-01-22T06:48:06.227Z,-1.10
2018-01-22T06:50:34.500Z,-1.10
2018-01-22T06:53:02.045Z,-1.10
2018-01-22T06:55:29.575Z,-1.10
2018-01-22T06:57:57.832Z,-1.00
2018-01-22T07:00:25.332Z,-1.00
2018-01-22T07:02:52.882Z,-0.90
2018-01-22T07:05:20.389Z,-0.90
2018-01-22T07:07:47.885Z,-0.90
2018-01-22T07:10:16.156Z,-0.90
2018-01-22T07:12:44.444Z,-0.90
2018-01-22T07:15:12.707Z,-0.90
2018-01-22T07:17:41.003Z,-0.60
2018-01-22T07:20:09.264Z,-0.50
2018-01-22T07:22:36.756Z,-0.50
2018-01-22T07:25:04.278Z,-0.50
2018-01-22T07:27:31.883Z,-0.60
2018-01-22T07:29:59.413Z,-0.70
2018-01-22T07:32:27.725Z,-0.70
2018-01-22T07:34:55.259Z,-0.70
2018-01-22T07:37:22.764Z,-0.70
2018-01-22T07:39:50.263Z,-0.70
2018-01-22T07:42:18.539Z,-0.70
2018-01-22T07:44:46.796Z,-0.60
2018-01-22T07:47:14.332Z,-0.70
2018-01-22T07:49:41.854Z,-0.60
2018-01-22T07:52:09.368Z,-0.60
2018-01-22T07:54:36.885Z,-0.50
2018-01-22T07:57:04.411Z,-0.50
2018-01-22T07:59:32.492Z,-0.50
2018-01-22T08:02:00.764Z,-0.40
2018-01-22T08:04:29.051Z,-0.40
2018-01-22T08:06:56.551Z,-0.40
2018-01-22T08:09:24.327Z,-0.40
2018-01-22T08:11:52.037Z,-0.40
2018-01-22T08:14:19.575Z,-0.30
2018-01-22T08:16:47.855Z,-0.30
2018-01-22T08:19:16.128Z,-0.30
2018-01-22T08:21:44.404Z,-0.30
2018-01-22T08:24:12.657Z,-0.30
2018-01-22T08:26:41.451Z,-0.30
2018-01-22T08:29:09.036Z,-0.30
2018-01-22T08:31:37.312Z,-0.20
2018-01-22T08:34:05.559Z,-0.10
2018-01-22T08:36:33.075Z,-0.10
2018-01-22T08:39:00.566Z,0.00
2018-01-22T08:41:28.076Z,-0.10
2018-01-22T08:43:56.468Z,-0.10
2018-01-22T08:46:24.000Z,-0.10
2018-01-22T08:48:51.512Z,0.00
2018-01-22T08:51:19.018Z,0.00
2018-01-22T08:53:47.280Z,0.10
2018-01-22T08:56:15.535Z,0.20
2018-01-22T08:58:43.131Z,0.20
2018-01-22T09:01:11.394Z,0.30
2018-01-22T09:03:39.643Z,0.40
2018-01-22T09:06:07.164Z,0.40
2018-01-22T09:08:34.657Z,0.30
2018-01-22T09:11:02.221Z,0.40
2018-01-22T09:13:29.727Z,0.40
2018-01-22T09:15:57.222Z,0.50
2018-01-22T09:18:24.729Z,0.60
2018-01-22T09:20:52.984Z,0.90
2018-01-22T09:23:20.575Z,0.90
2018-01-22T09:25:48.101Z,1.00
2018-01-22T09:28:15.707Z,1.00
2018-01-22T09:30:43.211Z,1.30
2018-01-22T09:33:10.702Z,1.30
2018-01-22T09:35:38.982Z,1.40
2018-01-22T09:38:07.243Z,1.50
2018-01-22T09:40:35.503Z,1.40
2018-01-22T09:43:03.144Z,1.40
2018-01-22T09:45:30.648Z,1.50
2018-01-22T09:47:58.912Z,2.00
2018-01-22T09:50:27.206Z,2.30
2018-01-22T09:52:55.484Z,2.40
2018-01-22T09:55:23.920Z,2.50
2018-01-22T09:57:51.419Z,2.50
2018-01-22T10:00:19.709Z,2.80
2018-01-22T10:02:47.227Z,2.90
2018-01-22T10:05:14.740Z,3.00
2018-01-22T10:07:42.263Z,3.30
2018-01-22T10:10:10.529Z,3.80
2018-01-22T10:12:38.120Z,3.80
2018-01-22T10:15:05.632Z,3.80
2018-01-22T10:17:33.133Z,3.90
2018-01-22T10:20:01.392Z,3.60
2018-01-22T10:22:28.887Z,3.60
2018-01-22T10:24:56.366Z,3.70
2018-01-22T10:27:23.865Z,3.60
2018-01-22T10:29:52.217Z,3.70
2018-01-22T10:32:19.823Z,3.70
2018-01-22T10:34:48.104Z,3.40
2018-01-22T10:37:15.612Z,3.30
2018-01-22T10:39:43.102Z,3.20
2018-01-22T10:42:11.410Z,3.30
2018-01-22T10:44:38.901Z,3.30
2018-01-22T10:47:06.402Z,3.40
2018-01-22T10:49:35.096Z,3.70
2018-01-22T10:52:02.608Z,3.60
2018-01-22T10:54:30.102Z,3.90
2018-01-22T10:56:58.398Z,5.10
2018-01-22T10:59:25.899Z,5.10
2018-01-22T11:01:53.400Z,5.90
2018-01-22T11:04:21.675Z,6.70
2018-01-22T11:06:50.092Z,7.00
2018-01-22T11:09:17.583Z,7.00
2018-01-22T11:11:45.082Z,7.20
2018-01-22T11:14:12.635Z,7.10
2018-01-22T11:16:40.934Z,7.20
2018-01-22T11:19:08.431Z,7.20
2018-01-22T11:21:35.930Z,7.00
2018-01-22T11:24:04.195Z,7.00
2018-01-22T11:26:32.459Z,6.70
2018-01-22T11:28:59.947Z,6.70
2018-01-22T11:31:27.477Z,6.30
2018-01-22T11:33:54.978Z,5.90
2018-01-22T11:36:22.510Z,5.60
2018-01-22T11:38:50.783Z,5.50
2018-01-22T11:41:19.060Z,5.60
2018-01-22T11:43:47.305Z,5.60
2018-01-22T11:46:14.923Z,5.60
2018-01-22T11:48:42.419Z,5.50
2018-01-22T11:51:09.919Z,5.50
2018-01-22T11:53:38.202Z,5.00
2018-01-22T11:56:05.718Z,4.90
2018-01-22T11:58:33.224Z,4.60
2018-01-22T12:01:00.744Z,4.50
2018-01-22T12:03:28.322Z,4.30
2018-01-22T12:05:56.612Z,4.10
2018-01-22T12:08:24.874Z,4.10
2018-01-22T12:10:53.165Z,4.00
2018-01-22T12:13:21.436Z,3.90
2018-01-22T12:15:49.706Z,3.70
2018-01-22T12:18:17.957Z,3.60
2018-01-22T12:20:45.473Z,3.50
2018-01-22T12:23:12.964Z,3.60
2018-01-22T12:25:40.566Z,3.70
2018-01-22T12:28:08.849Z,3.80
2018-01-22T12:30:37.108Z,4.10
2018-01-22T12:33:05.396Z,4.10
2018-01-22T12:35:33.667Z,4.20
2018-01-22T12:38:01.923Z,4.20
2018-01-22T12:40:29.441Z,4.20
2018-01-22T12:42:56.968Z,4.10
2018-01-22T12:45:25.239Z,4.10
2018-01-22T12:47:53.649Z,4.10
2018-01-22T12:50:21.148Z,3.80
2018-01-22T12:52:48.635Z,3.60
2018-01-22T12:55:16.899Z,3.40
2018-01-22T12:57:44.393Z,3.40
2018-01-22T13:00:11.933Z,3.40
2018-01-22T13:02:40.187Z,3.40
2018-01-22T13:05:07.768Z,3.40
2018-01-22T13:07:36.027Z,3.30
2018-01-22T13:10:04.331Z,3.20
2018-01-22T13:12:31.819Z,3.20
2018-01-22T13:14:59.303Z,3.20
2018-01-22T13:17:26.795Z,3.10
2018-01-22T13:19:55.060Z,3.20
2018-01-22T13:22:23.323Z,3.20
2018-01-22T13:24:50.830Z,3.20
2018-01-22T13:27:18.333Z,3.20
2018-01-22T13:29:45.829Z,3.20
2018-01-22T13:32:14.093Z,3.30
2018-01-22T13:34:42.347Z,3.30
2018-01-22T13:37:10.603Z,3.30
2018-01-22T13:39:38.163Z,3.30
2018-01-22T13:42:05.670Z,3.30
2018-01-22T13:44:33.939Z,3.30
2018-01-22T13:47:02.235Z,3.30
2018-01-22T13:49:29.788Z,3.20
2018-01-22T13:51:57.289Z,3.20
2018-01-22T13:54:24.789Z,3.10
2018-01-22T13:56:53.085Z,2.90
2018-01-22T13:59:20.589Z,2.90
2018-01-22T14:01:48.352Z,3.00
2018-01-22T14:04:15.835Z,3.00
2018-01-22T14:06:43.370Z,3.00
2018-01-22T14:09:10.884Z,3.00
2018-01-22T14:11:38.385Z,2.90
2018-01-22T14:14:05.895Z,2.80
2018-01-22T14:16:33.645Z,2.70
2018-01-22T14:19:01.913Z,2.60
2018-01-22T14:21:30.196Z,2.60
2018-01-22T14:23:58.545Z,2.60
2018-01-22T14:26:26.236Z,2.60
2018-01-22T14:28:54.545Z,2.60
2018-01-22T14:31:22.086Z,2.50
2018-01-22T14:33:49.591Z,2.50
2018-01-22T14:36:17.111Z,2.40
2018-01-22T14:38:44.613Z,2.40
2018-01-22T14:41:12.116Z,2.30
2018-01-22T14:43:40.400Z,2.20
2018-01-22T14:46:08.676Z,2.30
2018-01-22T14:48:36.236Z,2.20
2018-01-22T14:51:03.746Z,2.30
2018-01-22T14:53:31.246Z,2.30
2018-01-22T14:55:59.522Z,2.10
2018-01-22T14:58:27.804Z,2.10
2018-01-22T15:00:55.370Z,2.10
2018-01-22T15:03:22.863Z,2.10
2018-01-22T15:05:50.844Z,2.00
2018-01-22T15:08:19.140Z,2.00
2018-01-22T15:10:46.638Z,2.00
2018-01-22T15:13:14.151Z,1.90
2018-01-22T15:15:41.669Z,1.90
2018-01-22T15:18:09.213Z,1.90
2018-01-22T15:20:36.714Z,1.80
2018-01-22T15:23:04.218Z,1.70
2018-01-22T15:25:32.536Z,1.70
2018-01-22T15:28:00.081Z,1.60
2018-01-22T15:30:27.721Z,1.70
2018-01-22T15:32:55.277Z,1.70
2018-01-22T15:35:22.861Z,1.70
2018-01-22T15:37:50.348Z,1.70
2018-01-22T15:40:18.291Z,1.60
2018-01-22T15:42:45.824Z,1.60
2018-01-22T15:45:14.168Z,1.60
2018-01-22T15:47:41.690Z,1.60
2018-01-22T15:50:09.184Z,1.60
2018-01-22T15:52:36.668Z,1.60
2018-01-22T15:55:04.960Z,1.60
2018-01-22T15:57:32.457Z,1.60
2018-01-22T15:59:59.952Z,1.50
2018-01-22T16:02:27.444Z,1.50
2018-01-22T16:04:55.025Z,1.50
2018-01-22T16:07:22.528Z,1.40
2018-01-22T16:09:50.103Z,1.40
2018-01-22T16:12:18.369Z,1.40
2018-01-22T16:14:46.640Z,1.40
2018-01-22T16:17:14.935Z,1.40
2018-01-22T16:19:43.232Z,1.40
2018-01-22T16:22:11.477Z,1.40
2018-01-22T16:24:39.770Z,1.40
2018-01-22T16:27:07.329Z,1.30
2018-01-22T16:29:35.626Z,1.40
2018-01-22T16:32:03.331Z,1.40
2018-01-22T16:34:30.928Z,1.30
2018-01-22T16:36:58.498Z,1.30
2018-01-22T16:39:26.006Z,1.30
2018-01-22T16:41:53.579Z,1.40
2018-01-22T16:44:21.197Z,1.40
2018-01-22T16:46:54.433Z,1.40
2018-01-22T16:49:23.492Z,1.40
2018-01-22T16:51:51.113Z,1.30
2018-01-22T16:54:18.720Z,1.30
2018-01-22T16:56:46.288Z,1.30
2018-01-22T16:59:13.855Z,1.30
2018-01-22T17:01:42.594Z,1.40
2018-01-22T17:04:10.246Z,1.40
2018-01-22T17:06:38.072Z,1.40
2018-01-22T17:09:05.748Z,1.40
2018-01-22T17:11:33.371Z,1.40
2018-01-22T17:14:00.937Z,1.50
2018-01-22T17:16:28.435Z,1.40
2018-01-22T17:18:56.018Z,1.40
2018-01-22T17:21:23.524Z,1.40
2018-01-22T17:23:51.054Z,1.40
2018-01-22T17:26:18.605Z,1.40
2018-01-22T17:28:46.908Z,1.40
2018-01-22T17:31:14.538Z,1.40
2018-01-22T17:33:42.038Z,1.40
2018-01-22T17:36:09.539Z,1.40
2018-01-22T17:38:37.801Z,1.40
2018-01-22T17:41:05.299Z,1.40
2018-01-22T17:43:32.920Z,1.40
2018-01-22T17:46:00.546Z,1.40
2018-01-22T17:48:28.104Z,1.40
2018-01-22T17:50:55.914Z,1.40
2018-01-22T17:53:24.198Z,1.40
2018-01-22T17:55:52.474Z,1.40
2018-01-22T17:58:20.730Z,1.40
2018-01-22T18:00:48.299Z,1.40
2018-01-22T18:03:15.879Z,1.40
2018-01-22T18:05:43.426Z,1.40
2018-01-22T18:08:11.674Z,1.30
2018-01-22T18:10:39.175Z,1.30
2018-01-22T18:13:06.674Z,1.40
2018-01-22T18:15:34.173Z,1.30
2018-01-22T18:18:02.427Z,1.40
2018-01-22T18:20:30.030Z,1.30
2018-01-22T18:22:57.586Z,1.30
2018-01-22T18:25:25.079Z,1.30
2018-01-22T18:27:52.564Z,1.30
2018-01-22T18:30:20.169Z,1.20
2018-01-22T18:32:47.659Z,1.30
2018-01-22T18:35:15.294Z,1.20
2018-01-22T18:37:42.855Z,1.30
2018-01-22T18:40:10.395Z,1.30
2018-01-22T18:42:37.903Z,1.20
2018-01-22T18:45:05.422Z,1.20
2018-01-22T18:47:32.956Z,1.20
2018-01-22T18:50:00.435Z,1.10
2018-01-22T18:52:27.998Z,1.10
2018-01-22T18:54:55.491Z,1.00
2018-01-22T18:57:23.001Z,1.00
2018-01-22T18:59:51.305Z,1.00
2018-01-22T19:02:18.901Z,0.90
2018-01-22T19:04:46.396Z,0.90
2018-01-22T19:07:14.654Z,0.90
2018-01-22T19:09:42.149Z,0.90
2018-01-22T19:12:09.660Z,0.90
2018-01-22T19:14:37.179Z,0.90
2018-01-22T19:17:04.729Z,0.90
2018-01-22T19:19:32.215Z,0.90
2018-01-22T19:21:59.712Z,0.90
2018-01-22T19:24:27.203Z,0.90
2018-01-22T19:26:54.705Z,0.90
2018-01-22T19:29:23.232Z,1.00
2018-01-22T19:31:51.510Z,0.90
2018-01-22T19:34:19.036Z,0.90
2018-01-22T19:36:46.701Z,1.00
2018-01-22T19:39:14.197Z,0.90
2018-01-22T19:41:42.489Z,0.80
2018-01-22T19:44:10.047Z,0.80
2018-01-22T19:46:37.550Z,0.80
2018-01-22T19:49:05.064Z,0.80
2018-01-22T19:51:32.559Z,0.80
2018-01-22T19:54:00.154Z,0.70
2018-01-22T19:56:28.450Z,0.70
2018-01-22T19:58:55.939Z,0.70
2018-01-22T20:01:23.443Z,0.70
2018-01-22T20:03:51.748Z,0.60
2018-01-22T20:06:19.256Z,0.60
2018-01-22T20:08:46.781Z,0.60
2018-01-22T20:11:14.485Z,0.60
2018-01-22T20:13:41.984Z,0.60
2018-01-22T20:16:09.657Z,0.60
2018-01-22T20:18:37.220Z,0.50
2018-01-22T20:21:04.781Z,0.50
2018-01-22T20:23:32.264Z,0.50
2018-01-22T20:25:59.768Z,0.50
2018-01-22T20:28:28.030Z,0.40
2018-01-22T20:30:56.292Z,0.40
2018-01-22T20:33:23.776Z,0.30
2018-01-22T20:35:52.089Z,0.30
2018-01-22T20:38:19.611Z,0.20
2018-01-22T20:40:47.128Z,0.20
2018-01-22T20:43:14.695Z,0.20
2018-01-22T20:45:43.716Z,0.90
2018-01-22T20:48:12.006Z,0.80
2018-01-22T20:50:40.275Z,0.60
2018-01-22T20:53:08.549Z,0.40
2018-01-22T20:55:36.836Z,0.40
2018-01-22T20:58:04.386Z,0.30
2018-01-22T21:00:32.674Z,0.20
2018-01-22T21:03:00.159Z,0.20
2018-01-22T21:05:27.652Z,0.30
2018-01-22T21:07:55.256Z,0.20
2018-01-22T21:10:22.836Z,0.20
2018-01-22T21:12:50.666Z,0.20
2018-01-22T21:15:18.935Z,0.30
2018-01-22T21:17:47.185Z,0.30
2018-01-22T21:20:14.783Z,0.20
2018-01-22T21:22:43.063Z,0.20
2018-01-22T21:25:11.334Z,0.30
2018-01-22T21:27:39.619Z,0.30
2018-01-22T21:30:07.126Z,0.20
2018-01-22T21:32:34.675Z,0.30
2018-01-22T21:35:02.183Z,0.30
2018-01-22T21:37:33.956Z,0.30
2018-01-22T21:40:01.543Z,0.20
2018-01-22T21:42:29.126Z,0.30
2018-01-22T21:44:56.619Z,0.30
2018-01-22T21:47:25.088Z,0.30
2018-01-22T21:49:52.567Z,0.20
2018-01-22T21:52:20.828Z,0.30
2018-01-22T21:54:49.140Z,0.30
2018-01-22T21:57:16.632Z,0.30
2018-01-22T21:59:44.138Z,0.30
2018-01-22T22:02:12.399Z,0.30
2018-01-22T22:04:40.659Z,0.30
2018-01-22T22:07:08.250Z,0.20
2018-01-22T22:09:35.745Z,0.30
2018-01-22T22:12:03.267Z,0.20
2018-01-22T22:14:30.763Z,0.20
2018-01-22T22:16:58.291Z,0.20
2018-01-22T22:19:25.787Z,0.20
2018-01-22T22:21:53.279Z,0.30
2018-01-22T22:24:21.586Z,0.20
2018-01-22T22:26:49.152Z,0.20
2018-01-22T22:29:16.698Z,0.20
2018-01-22T22:31:44.965Z,0.20
2018-01-22T22:34:13.269Z,0.20
2018-01-22T22:36:40.770Z,0.20
2018-01-22T22:39:08.309Z,0.20
2018-01-22T22:41:36.029Z,0.20
2018-01-22T22:44:04.303Z,0.20
2018-01-22T22:46:32.554Z,0.30
2018-01-22T22:49:00.148Z,0.20
2018-01-22T22:51:27.655Z,0.20
2018-01-22T22:53:55.155Z,0.20
2018-01-22T22:56:23.418Z,0.30
2018-01-22T22:58:51.679Z,0.30
2018-01-22T23:01:19.353Z,0.20
2018-01-22T23:03:47.659Z,0.30
2018-01-22T23:06:15.446Z,0.30
2018-01-22T23:08:43.019Z,0.30
2018-01-22T23:11:10.658Z,0.30
2018-01-22T23:13:38.627Z,0.40
2018-01-22T23:16:06.163Z,0.40
2018-01-22T23:18:33.727Z,0.40
2018-01-22T23:21:01.303Z,0.40
2018-01-22T23:23:28.858Z,0.30
2018-01-22T23:25:56.430Z,0.30
2018-01-22T23:28:24.019Z,0.40
2018-01-22T23:30:51.652Z,0.30
2018-01-22T23:33:19.201Z,0.30
2018-01-22T23:35:46.759Z,0.30
2018-01-22T23:38:14.344Z,0.30
2018-01-22T23:40:41.913Z,0.30
2018-01-22T23:43:09.479Z,0.20
2018-01-22T23:45:37.109Z,0.30
2018-01-22T23:48:04.654Z,0.30
2018-01-22T23:50:32.225Z,0.20
2018-01-22T23:52:59.808Z,0.30
2018-01-22T23:55:27.368Z,0.30
2018-01-22T23:57:54.956Z,0.30
